createdAt,value
2018-08-10T00:01:52.189Z,2.80
2018-08-10T00:04:21.749Z,3.20
2018-08-10T00:06:51.410Z,3.30
2018-08-10T00:09:21.369Z,3.00
2018-08-10T00:11:51.049Z,3.50
2018-08-10T00:14:20.664Z,3.33
2018-08-10T00:16:50.212Z,3.30
2018-08-10T00:19:19.710Z,3.30
2018-08-10T00:21:49.729Z,3.20
2018-08-10T00:24:19.289Z,3.27
2018-08-10T00:26:48.889Z,3.23
2018-08-10T00:29:18.569Z,3.90
2018-08-10T00:31:48.209Z,3.50
2018-08-10T00:34:17.709Z,3.80
2018-08-10T00:36:47.469Z,3.50
2018-08-10T00:39:17.029Z,3.90
2018-08-10T00:41:46.949Z,3.60
2018-08-10T00:44:16.613Z,4.27
2018-08-10T00:46:46.213Z,4.10
2018-08-10T00:49:15.949Z,3.90
2018-08-10T00:51:45.850Z,3.77
2018-08-10T00:54:15.851Z,3.80
2018-08-10T00:56:45.670Z,3.87
2018-08-10T00:59:15.809Z,3.87
2018-08-10T01:01:45.350Z,3.97
2018-08-10T01:04:15.189Z,3.93
2018-08-10T01:06:44.869Z,3.73
2018-08-10T01:09:14.825Z,4.13
2018-08-10T01:11:44.911Z,4.03
2018-08-10T01:14:14.469Z,3.80
2018-08-10T01:16:44.329Z,4.40
2018-08-10T01:19:14.245Z,4.17
2018-08-10T01:21:44.009Z,3.80
2018-08-10T01:24:13.889Z,3.70
2018-08-10T01:26:43.773Z,4.50
2018-08-10T01:29:14.354Z,4.17
2018-08-10T01:31:44.009Z,3.80
2018-08-10T01:34:13.984Z,4.57
2018-08-10T01:36:43.630Z,4.30
2018-08-10T01:39:18.209Z,3.90
2018-08-10T01:41:47.769Z,4.57
2018-08-10T01:44:17.749Z,3.70
2018-08-10T01:46:47.312Z,4.03
2018-08-10T01:49:16.829Z,3.90
2018-08-10T01:51:46.373Z,3.77
2018-08-10T01:54:15.849Z,3.70
2018-08-10T01:56:45.425Z,3.67
2018-08-10T01:59:14.949Z,3.73
2018-08-10T02:01:44.972Z,3.70
2018-08-10T02:04:14.669Z,3.87
2018-08-10T02:06:45.089Z,4.33
2018-08-10T02:09:15.384Z,3.77
2018-08-10T02:11:45.376Z,4.37
2018-08-10T02:14:15.350Z,4.00
2018-08-10T02:17:13.392Z,3.67
2018-08-10T02:19:43.950Z,4.20
2018-08-10T02:22:13.729Z,4.70
2018-08-10T02:24:43.423Z,3.97
2018-08-10T02:27:12.932Z,3.80
2018-08-10T02:29:42.751Z,4.00
2018-08-10T02:32:12.229Z,3.60
2018-08-10T02:34:42.311Z,4.07
2018-08-10T02:37:12.459Z,3.90
2018-08-10T02:39:42.230Z,4.17
2018-08-10T02:42:12.397Z,4.07
2018-08-10T02:44:41.909Z,4.60
2018-08-10T02:47:11.735Z,4.20
2018-08-10T02:49:41.250Z,3.90
2018-08-10T02:52:10.936Z,4.43
2018-08-10T02:54:40.409Z,4.43
2018-08-10T02:57:09.929Z,4.30
2018-08-10T02:59:39.511Z,4.33
2018-08-10T03:02:09.566Z,4.20
2018-08-10T03:04:39.209Z,5.57
2018-08-10T03:07:09.509Z,4.50
2018-08-10T03:09:39.269Z,4.93
2018-08-10T03:12:10.609Z,9.13
2018-08-10T03:14:40.471Z,5.27
2018-08-10T03:17:10.709Z,4.50
2018-08-10T03:19:40.329Z,6.00
2018-08-10T03:22:09.862Z,4.80
2018-08-10T03:24:39.591Z,4.67
2018-08-10T03:27:09.729Z,4.43
2018-08-10T03:29:40.229Z,4.57
2018-08-10T03:32:09.871Z,4.60
2018-08-10T03:34:39.768Z,4.23
2018-08-10T03:37:09.568Z,4.47
2018-08-10T03:39:39.248Z,4.33
2018-08-10T03:42:08.690Z,4.60
2018-08-10T03:44:38.248Z,4.67
2018-08-10T03:47:07.733Z,3.90
2018-08-10T03:49:37.249Z,4.40
2018-08-10T03:52:07.154Z,5.50
2018-08-10T03:54:36.919Z,7.27
2018-08-10T03:57:06.868Z,4.23
2018-08-10T03:59:36.708Z,4.47
2018-08-10T04:02:06.751Z,4.53
2018-08-10T04:04:36.312Z,4.80
2018-08-10T04:07:05.833Z,4.73
2018-08-10T04:09:35.408Z,4.80
2018-08-10T04:12:05.328Z,4.47
2018-08-10T04:14:35.012Z,4.77
2018-08-10T04:17:04.893Z,4.70
2018-08-10T04:19:34.428Z,4.80
2018-08-10T04:22:04.128Z,4.50
2018-08-10T04:24:33.529Z,4.90
2018-08-10T04:27:03.069Z,4.30
2018-08-10T04:29:32.740Z,4.80
2018-08-10T04:32:02.329Z,4.80
2018-08-10T04:34:31.828Z,4.10
2018-08-10T04:37:01.452Z,4.47
2018-08-10T04:39:31.428Z,5.00
2018-08-10T04:42:00.988Z,4.97
2018-08-10T04:44:30.928Z,4.80
2018-08-10T04:47:00.448Z,4.57
2018-08-10T04:49:30.069Z,4.37
2018-08-10T04:51:59.829Z,4.50
2018-08-10T04:54:29.688Z,4.77
2018-08-10T04:56:59.350Z,4.70
2018-08-10T04:59:28.912Z,4.53
2018-08-10T05:01:58.829Z,4.90
2018-08-10T05:04:28.469Z,4.90
2018-08-10T05:06:57.975Z,4.80
2018-08-10T05:09:27.548Z,5.33
2018-08-10T05:11:57.153Z,4.90
2018-08-10T05:14:27.013Z,4.50
2018-08-10T05:16:56.968Z,4.77
2018-08-10T05:19:26.774Z,4.90
2018-08-10T05:21:56.509Z,5.27
2018-08-10T05:24:26.209Z,4.53
2018-08-10T05:26:56.051Z,4.67
2018-08-10T05:29:25.628Z,4.67
2018-08-10T05:31:55.278Z,5.37
2018-08-10T05:34:24.917Z,4.90
2018-08-10T05:36:54.959Z,5.47
2018-08-10T05:39:24.775Z,5.67
2018-08-10T05:41:54.376Z,5.07
2018-08-10T05:44:24.237Z,5.03
2018-08-10T05:46:53.848Z,5.10
2018-08-10T05:49:23.696Z,4.67
2018-08-10T05:51:53.256Z,4.77
2018-08-10T05:54:22.952Z,4.70
2018-08-10T05:56:52.536Z,4.70
2018-08-10T05:59:22.096Z,4.73
2018-08-10T06:01:52.037Z,4.87
2018-08-10T06:04:21.757Z,5.07
2018-08-10T06:06:51.416Z,4.57
2018-08-10T06:09:21.057Z,4.70
2018-08-10T06:11:50.914Z,4.83
2018-08-10T06:14:20.377Z,4.80
2018-08-10T06:16:49.957Z,5.10
2018-08-10T06:19:19.603Z,4.73
2018-08-10T06:21:49.183Z,5.10
2018-08-10T06:24:18.637Z,4.77
2018-08-10T06:26:48.337Z,4.70
2018-08-10T06:29:17.912Z,5.43
2018-08-10T06:31:47.592Z,4.73
2018-08-10T06:34:17.253Z,5.00
2018-08-10T06:36:47.083Z,4.53
2018-08-10T06:39:16.618Z,5.70
2018-08-10T06:41:46.143Z,5.23
2018-08-10T06:44:15.683Z,5.17
2018-08-10T06:46:45.263Z,5.80
2018-08-10T06:49:14.746Z,6.17
2018-08-10T06:51:44.563Z,5.80
2018-08-10T06:54:14.483Z,5.70
2018-08-10T06:56:43.923Z,5.90
2018-08-10T06:59:13.529Z,5.07
2018-08-10T07:01:43.284Z,5.00
2018-08-10T07:04:13.303Z,5.13
2018-08-10T07:06:43.169Z,5.90
2018-08-10T07:09:13.443Z,5.27
2018-08-10T07:11:42.945Z,5.10
2018-08-10T07:14:12.383Z,5.13
2018-08-10T07:16:41.924Z,5.10
2018-08-10T07:19:11.483Z,5.03
2018-08-10T07:21:41.083Z,5.90
2018-08-10T07:24:10.503Z,5.10
2018-08-10T07:26:40.143Z,5.70
2018-08-10T07:29:09.663Z,5.13
2018-08-10T07:31:39.525Z,4.70
2018-08-10T07:34:09.243Z,6.30
2018-08-10T07:36:39.123Z,6.10
2018-08-10T07:39:11.483Z,6.07
2018-08-10T07:41:42.051Z,5.83
2018-08-10T07:44:11.624Z,5.43
2018-08-10T07:46:41.215Z,5.33
2018-08-10T07:49:10.749Z,5.27
2018-08-10T07:51:40.308Z,5.63
2018-08-10T07:54:09.853Z,5.73
2018-08-10T07:56:39.391Z,5.37
2018-08-10T07:59:09.385Z,5.50
2018-08-10T08:01:38.911Z,5.57
2018-08-10T08:04:09.871Z,5.53
2018-08-10T08:06:39.293Z,5.73
2018-08-10T08:09:12.012Z,5.33
2018-08-10T08:11:42.231Z,5.40
2018-08-10T08:14:11.765Z,5.10
2018-08-10T08:16:41.536Z,4.87
2018-08-10T08:19:11.023Z,5.20
2018-08-10T08:21:54.052Z,5.80
2018-08-10T08:24:23.804Z,5.77
2018-08-10T08:26:53.391Z,5.83
2018-08-10T08:29:22.823Z,5.50
2018-08-10T08:31:52.792Z,5.57
2018-08-10T08:34:22.536Z,4.70
2018-08-10T08:36:52.543Z,5.03
2018-08-10T08:39:38.272Z,5.17
2018-08-10T08:42:07.914Z,4.93
2018-08-10T08:46:54.632Z,5.07
2018-08-10T08:49:24.372Z,5.27
2018-08-10T08:51:54.149Z,5.17
2018-08-10T08:56:42.492Z,5.13
2018-08-10T08:59:12.072Z,4.97
2018-08-10T09:01:41.532Z,5.13
2018-08-10T09:05:02.712Z,5.10
2018-08-10T09:07:32.740Z,4.80
2018-08-10T09:10:04.004Z,5.13
2018-08-10T09:12:33.591Z,5.37
2018-08-10T09:15:07.173Z,5.33
2018-08-10T09:17:36.956Z,4.60
2018-08-10T09:20:08.582Z,5.00
2018-08-10T09:22:38.271Z,4.83
2018-08-10T09:25:14.979Z,4.43
2018-08-10T09:27:44.632Z,4.53
2018-08-10T09:30:16.883Z,4.40
2018-08-10T09:32:46.611Z,4.60
2018-08-10T09:35:16.431Z,4.43
2018-08-10T09:37:46.631Z,4.33
2018-08-10T09:40:18.012Z,5.30
2018-08-10T09:42:48.019Z,4.97
2018-08-10T09:45:18.566Z,5.17
2018-08-10T09:47:49.272Z,4.97
2018-08-10T09:50:19.991Z,4.73
2018-08-10T09:53:00.912Z,5.00
2018-08-10T09:55:37.531Z,4.83
2018-08-10T09:58:13.353Z,4.87
2018-08-10T10:00:48.424Z,4.73
2018-08-10T10:03:20.092Z,4.57
2018-08-10T10:05:50.892Z,3.80
2018-08-10T10:08:21.191Z,4.50
2018-08-10T10:10:51.074Z,5.23
2018-08-10T10:13:20.651Z,5.20
2018-08-10T10:15:50.217Z,4.30
2018-08-10T10:18:19.831Z,4.70
2018-08-10T10:20:49.511Z,3.93
2018-08-10T10:23:19.330Z,4.00
2018-08-10T10:25:49.211Z,4.77
2018-08-10T10:28:19.151Z,4.83
2018-08-10T10:30:48.911Z,4.23
2018-08-10T10:33:18.451Z,4.50
2018-08-10T10:35:48.003Z,4.30
2018-08-10T10:38:17.528Z,4.10
2018-08-10T10:40:47.251Z,4.60
2018-08-10T10:43:16.951Z,4.40
2018-08-10T10:45:46.511Z,4.13
2018-08-10T10:48:16.451Z,5.17
2018-08-10T10:50:46.269Z,4.63
2018-08-10T10:53:15.875Z,4.77
2018-08-10T10:55:45.652Z,4.57
2018-08-10T10:58:15.360Z,5.43
2018-08-10T11:00:44.973Z,4.77
2018-08-10T11:03:14.571Z,4.70
2018-08-10T11:05:44.231Z,5.03
2018-08-10T11:08:14.288Z,4.60
2018-08-10T11:10:44.162Z,5.17
2018-08-10T11:13:14.001Z,4.73
2018-08-10T11:15:43.640Z,4.23
2018-08-10T11:18:13.477Z,3.73
2018-08-10T11:20:43.042Z,4.00
2018-08-10T11:23:12.588Z,4.33
2018-08-10T11:25:42.220Z,4.33
2018-08-10T11:30:47.063Z,5.00
2018-08-10T11:33:16.614Z,4.47
2018-08-10T11:35:46.181Z,4.33
2018-08-10T11:38:15.861Z,4.30
2018-08-10T11:40:45.481Z,4.17
2018-08-10T11:43:15.041Z,4.40
2018-08-10T11:45:44.721Z,3.60
2018-08-10T11:48:14.421Z,3.20
2018-08-10T11:50:44.181Z,3.40
2018-08-10T11:53:13.681Z,3.40
2018-08-10T11:55:43.260Z,3.00
2018-08-10T11:58:12.903Z,2.27
2018-08-10T12:00:44.561Z,1.67
2018-08-10T12:03:14.041Z,1.20
2018-08-10T12:05:43.686Z,1.10
2018-08-10T12:08:13.341Z,1.23
2018-08-10T12:10:43.301Z,1.40
2018-08-10T12:13:12.901Z,1.20
2018-08-10T12:15:42.560Z,0.90
2018-08-10T12:18:12.181Z,1.20
2018-08-10T12:20:41.923Z,1.37
2018-08-10T12:23:11.642Z,1.40
2018-08-10T12:25:41.541Z,1.13
2018-08-10T12:28:11.614Z,1.03
2018-08-10T12:30:41.721Z,0.97
2018-08-10T12:33:11.485Z,1.03
2018-08-10T12:35:41.027Z,1.10
2018-08-10T12:38:10.860Z,1.50
2018-08-10T12:40:40.780Z,1.30
2018-08-10T12:43:10.441Z,1.10
2018-08-10T12:45:39.961Z,1.20
2018-08-10T12:48:09.721Z,1.43
2018-08-10T12:50:39.561Z,1.40
2018-08-10T12:53:09.401Z,1.23
2018-08-10T12:55:39.041Z,1.50
2018-08-10T12:58:11.560Z,1.50
2018-08-10T13:00:41.121Z,1.40
2018-08-10T13:03:10.773Z,1.40
2018-08-10T13:05:40.461Z,1.17
2018-08-10T13:08:10.078Z,1.80
2018-08-10T13:10:39.905Z,1.70
2018-08-10T13:13:10.089Z,1.60
2018-08-10T13:15:40.090Z,1.53
2018-08-10T13:18:09.908Z,1.50
2018-08-10T13:20:39.560Z,1.40
2018-08-10T13:23:09.123Z,1.10
2018-08-10T13:25:38.915Z,1.50
2018-08-10T13:28:08.901Z,1.10
2018-08-10T13:30:38.443Z,1.40
2018-08-10T13:33:08.067Z,1.40
2018-08-10T13:35:37.749Z,1.17
2018-08-10T13:38:07.947Z,1.30
2018-08-10T13:40:37.587Z,1.07
2018-08-10T13:43:07.607Z,1.00
2018-08-10T13:45:37.050Z,1.00
2018-08-10T13:48:06.768Z,0.83
2018-08-10T13:50:36.335Z,1.20
2018-08-10T13:53:05.811Z,1.00
2018-08-10T13:55:35.518Z,1.27
2018-08-10T13:58:05.184Z,1.07
2018-08-10T14:00:34.779Z,1.00
2018-08-10T14:03:04.718Z,1.10
2018-08-10T14:05:34.136Z,1.20
2018-08-10T14:08:03.771Z,1.13
2018-08-10T14:10:33.411Z,1.30
2018-08-10T14:13:02.796Z,1.00
2018-08-10T14:15:32.128Z,1.07
2018-08-10T14:18:01.704Z,0.90
2018-08-10T14:20:30.992Z,1.10
2018-08-10T14:23:00.982Z,1.03
2018-08-10T14:25:30.527Z,1.10
2018-08-10T14:28:00.078Z,1.10
2018-08-10T14:30:29.598Z,1.30
2018-08-10T14:32:59.201Z,0.93
2018-08-10T14:35:28.838Z,1.00
2018-08-10T14:37:58.707Z,1.00
2018-08-10T14:40:29.000Z,1.53
2018-08-10T14:42:59.111Z,1.20
2018-08-10T14:45:28.801Z,0.90
2018-08-10T14:47:58.407Z,1.00
2018-08-10T14:50:27.955Z,1.00
2018-08-10T14:52:57.847Z,1.23
2018-08-10T14:55:27.348Z,1.00
2018-08-10T14:57:56.996Z,0.80
2018-08-10T15:00:26.711Z,0.80
2018-08-10T15:02:56.467Z,0.90
2018-08-10T15:05:26.075Z,0.97
2018-08-10T15:07:55.567Z,0.70
2018-08-10T15:10:25.227Z,0.70
2018-08-10T15:12:55.350Z,0.70
2018-08-10T15:15:24.756Z,1.07
2018-08-10T15:17:54.237Z,1.43
2018-08-10T15:20:23.918Z,1.67
2018-08-10T15:22:53.436Z,1.60
2018-08-10T15:25:23.477Z,0.90
2018-08-10T15:27:53.457Z,0.80
2018-08-10T15:30:23.539Z,1.03
2018-08-10T15:32:53.356Z,1.00
2018-08-10T15:35:22.923Z,2.03
2018-08-10T15:37:52.700Z,1.90
2018-08-10T15:40:22.296Z,1.30
2018-08-10T15:42:58.996Z,1.00
2018-08-10T15:45:28.847Z,1.30
2018-08-10T15:47:58.571Z,1.37
2018-08-10T15:50:28.328Z,1.10
2018-08-10T15:52:57.927Z,1.57
2018-08-10T15:55:27.527Z,1.77
2018-08-10T15:57:57.207Z,1.33
2018-08-10T16:00:26.868Z,1.83
2018-08-10T16:02:56.376Z,1.87
2018-08-10T16:05:25.936Z,2.17
2018-08-10T16:07:55.687Z,1.30
2018-08-10T16:10:25.507Z,1.50
2018-08-10T16:12:55.107Z,1.77
2018-08-10T16:15:24.615Z,1.70
2018-08-10T16:17:54.312Z,1.30
2018-08-10T16:20:24.198Z,1.50
2018-08-10T16:22:53.777Z,1.50
2018-08-10T16:25:24.103Z,1.60
2018-08-10T16:27:53.904Z,1.60
2018-08-10T16:30:23.766Z,1.50
2018-08-10T16:32:53.668Z,1.70
2018-08-10T16:35:23.829Z,1.37
2018-08-10T16:37:53.840Z,1.43
2018-08-10T16:40:24.228Z,1.70
2018-08-10T16:42:53.872Z,1.33
2018-08-10T16:45:23.455Z,1.57
2018-08-10T16:47:53.316Z,1.80
2018-08-10T16:50:23.119Z,1.67
2018-08-10T16:52:52.762Z,1.60
2018-08-10T16:55:22.497Z,1.80
2018-08-10T16:57:52.078Z,2.07
2018-08-10T17:00:22.201Z,2.40
2018-08-10T17:02:51.996Z,2.10
2018-08-10T17:05:22.070Z,2.67
2018-08-10T17:07:51.857Z,2.90
2018-08-10T17:10:22.203Z,2.73
2018-08-10T17:12:52.077Z,3.10
2018-08-10T17:15:22.696Z,3.80
2018-08-10T17:17:52.818Z,4.20
2018-08-10T17:20:23.756Z,4.43
2018-08-10T17:22:53.437Z,4.70
2018-08-10T17:25:23.877Z,4.87
2018-08-10T17:27:53.617Z,5.20
2018-08-10T17:30:23.977Z,5.10
2018-08-10T17:32:53.896Z,6.03
2018-08-10T17:35:23.596Z,5.67
2018-08-10T17:37:54.016Z,5.47
2018-08-10T17:40:23.876Z,6.00
2018-08-10T17:42:54.236Z,6.07
2018-08-10T17:45:24.985Z,5.37
2018-08-10T17:47:54.996Z,6.00
2018-08-10T17:50:25.450Z,6.20
2018-08-10T17:52:55.413Z,5.80
2018-08-10T17:55:25.537Z,5.57
2018-08-10T17:57:55.276Z,6.10
2018-08-10T18:00:26.359Z,5.60
2018-08-10T18:02:56.095Z,5.83
2018-08-10T18:05:25.883Z,6.20
2018-08-10T18:07:55.603Z,5.47
2018-08-10T18:10:25.363Z,6.73
2018-08-10T18:12:55.016Z,6.37
2018-08-10T18:15:24.577Z,5.60
2018-08-10T18:17:54.278Z,6.70
2018-08-10T18:20:23.822Z,6.77
2018-08-10T18:22:53.522Z,7.20
2018-08-10T18:25:23.795Z,7.27
2018-08-10T18:27:53.694Z,7.13
2018-08-10T18:30:25.016Z,6.70
2018-08-10T18:32:54.794Z,6.70
2018-08-10T18:35:24.910Z,6.53
2018-08-10T18:37:54.715Z,7.13
2018-08-10T18:40:24.876Z,6.67
2018-08-10T18:42:54.978Z,7.43
2018-08-10T18:45:24.937Z,7.43
2018-08-10T18:47:54.914Z,6.50
2018-08-10T18:50:24.671Z,6.33
2018-08-10T18:52:54.177Z,5.93
2018-08-10T18:55:24.197Z,6.33
2018-08-10T18:57:53.870Z,6.27
2018-08-10T19:00:25.659Z,6.27
2018-08-10T19:02:56.038Z,6.07
2018-08-10T19:05:25.798Z,6.63
2018-08-10T19:07:55.759Z,6.03
2018-08-10T19:10:26.937Z,6.33
2018-08-10T19:12:56.817Z,5.93
2018-08-10T19:15:26.774Z,6.47
2018-08-10T19:17:56.627Z,6.40
2018-08-10T19:20:26.253Z,5.87
2018-08-10T19:22:55.993Z,6.30
2018-08-10T19:25:25.632Z,5.60
2018-08-10T19:27:55.207Z,6.00
2018-08-10T19:30:25.452Z,5.37
2018-08-10T19:32:55.514Z,5.57
2018-08-10T19:35:25.147Z,4.60
2018-08-10T19:37:54.893Z,4.20
2018-08-10T19:40:24.993Z,4.23
2018-08-10T19:42:54.614Z,4.27
2018-08-10T19:45:24.177Z,4.20
2018-08-10T19:47:53.879Z,5.20
2018-08-10T19:50:24.673Z,5.00
2018-08-10T19:52:54.859Z,4.33
2018-08-10T19:55:24.897Z,4.30
2018-08-10T19:57:54.477Z,4.10
2018-08-10T20:00:24.217Z,4.33
2018-08-10T20:02:54.357Z,4.77
2018-08-10T20:05:24.537Z,4.50
2018-08-10T20:07:54.257Z,4.20
2018-08-10T20:10:24.098Z,4.23
2018-08-10T20:12:53.877Z,4.30
2018-08-10T20:15:23.888Z,4.90
2018-08-10T20:17:53.478Z,4.90
2018-08-10T20:20:23.173Z,4.20
2018-08-10T20:22:52.878Z,4.83
2018-08-10T20:25:22.497Z,4.60
2018-08-10T20:27:52.037Z,4.50
2018-08-10T20:30:21.898Z,5.00
2018-08-10T20:32:52.018Z,4.80
2018-08-10T20:35:21.678Z,5.10
2018-08-10T20:37:51.786Z,5.60
2018-08-10T20:40:21.623Z,5.53
2018-08-10T20:42:51.376Z,5.60
2018-08-10T20:45:21.407Z,5.60
2018-08-10T20:47:51.234Z,4.83
2018-08-10T20:50:22.394Z,4.63
2018-08-10T20:52:52.026Z,4.90
2018-08-10T20:55:21.947Z,5.10
2018-08-10T20:57:51.727Z,5.33
2018-08-10T21:00:21.366Z,4.73
2018-08-10T21:02:51.307Z,5.27
2018-08-10T21:05:21.107Z,5.23
2018-08-10T21:07:50.724Z,5.67
2018-08-10T21:10:20.377Z,5.50
2018-08-10T21:12:50.116Z,5.00
2018-08-10T21:15:19.838Z,6.00
2018-08-10T21:17:49.596Z,5.37
2018-08-10T21:20:19.348Z,5.07
2018-08-10T21:22:49.178Z,5.20
2018-08-10T21:25:19.401Z,5.70
2018-08-10T21:27:49.156Z,5.60
2018-08-10T21:30:19.837Z,6.00
2018-08-10T21:32:49.689Z,5.60
2018-08-10T21:35:19.356Z,5.83
2018-08-10T21:37:49.194Z,5.17
2018-08-10T21:40:19.201Z,6.30
2018-08-10T21:42:48.937Z,6.43
2018-08-10T21:45:18.616Z,5.63
2018-08-10T21:47:48.297Z,5.77
2018-08-10T21:50:17.916Z,6.17
2018-08-10T21:52:47.516Z,6.70
2018-08-10T21:55:17.122Z,6.20
2018-08-10T21:57:46.912Z,6.10
2018-08-10T22:00:31.555Z,5.77
2018-08-10T22:03:01.235Z,5.80
2018-08-10T22:05:30.754Z,5.70
2018-08-10T22:08:00.155Z,6.03
2018-08-10T22:10:29.783Z,6.43
2018-08-10T22:12:59.468Z,6.67
2018-08-10T22:15:34.554Z,6.03
2018-08-10T22:18:09.635Z,6.20
2018-08-10T22:20:39.274Z,5.60
2018-08-10T22:23:08.755Z,6.57
2018-08-10T22:25:38.235Z,5.90
2018-08-10T22:28:07.915Z,5.40
2018-08-10T22:30:37.489Z,5.50
2018-08-10T22:33:07.475Z,6.07
2018-08-10T22:35:37.128Z,5.37
2018-08-10T22:38:06.514Z,5.97
2018-08-10T22:40:36.096Z,6.13
2018-08-10T22:43:05.995Z,5.20
2018-08-10T22:45:35.675Z,4.97
2018-08-10T22:48:05.934Z,4.47
2018-08-10T22:50:35.554Z,5.03
2018-08-10T22:53:05.794Z,5.33
2018-08-10T22:55:35.874Z,5.30
2018-08-10T22:58:05.655Z,5.57
2018-08-10T23:00:35.494Z,5.20
2018-08-10T23:03:05.362Z,5.40
2018-08-10T23:05:35.538Z,5.67
2018-08-10T23:08:05.584Z,5.60
2018-08-10T23:10:35.377Z,5.33
2018-08-10T23:13:05.314Z,5.67
2018-08-10T23:15:35.176Z,5.70
2018-08-10T23:18:05.894Z,6.17
2018-08-10T23:20:35.556Z,6.17
2018-08-10T23:23:05.634Z,5.63
2018-08-10T23:25:35.974Z,6.33
2018-08-10T23:28:05.877Z,6.10
2018-08-10T23:30:35.520Z,5.47
2018-08-10T23:33:05.274Z,5.77
2018-08-10T23:35:34.854Z,5.50
2018-08-10T23:38:04.635Z,6.43
2018-08-10T23:40:34.834Z,6.20
2018-08-10T23:43:04.753Z,6.43
2018-08-10T23:45:34.613Z,7.30
2018-08-10T23:48:04.494Z,7.03
2018-08-10T23:50:34.514Z,7.37
2018-08-10T23:53:04.174Z,7.77
2018-08-10T23:55:33.914Z,7.93
2018-08-10T23:58:03.691Z,7.50
